createdAt,value
2019-04-23T00:01:13.301Z,13.70
2019-04-23T00:03:28.932Z,13.70
2019-04-23T00:05:59.479Z,13.70
2019-04-23T00:08:33.944Z,13.70
2019-04-23T00:10:58.726Z,13.70
2019-04-23T00:13:30.454Z,13.70
2019-04-23T00:16:03.067Z,13.60
2019-04-23T00:18:39.131Z,13.60
2019-04-23T00:21:13.875Z,13.60
2019-04-23T00:23:46.365Z,13.60
2019-04-23T00:28:50.473Z,13.50
2019-04-23T00:31:22.153Z,13.50
2019-04-23T00:33:40.914Z,13.40
2019-04-23T00:36:22.941Z,13.40
2019-04-23T00:41:10.626Z,13.40
2019-04-23T00:43:43.211Z,13.30
2019-04-23T00:46:28.878Z,13.20
2019-04-23T00:48:48.914Z,13.20
2019-04-23T00:51:01.987Z,13.20
2019-04-23T00:53:36.994Z,13.10
2019-04-23T00:56:28.993Z,13.10
2019-04-23T00:58:43.302Z,13.10
2019-04-23T01:01:31.959Z,13.00
2019-04-23T01:03:33.332Z,13.10
2019-04-23T01:06:08.204Z,13.00
2019-04-23T01:08:38.785Z,13.00
2019-04-23T01:16:13.099Z,12.90
2019-04-23T01:20:58.032Z,12.90
2019-04-23T01:23:42.395Z,12.80
2019-04-23T01:26:31.120Z,12.80
2019-04-23T01:29:08.273Z,12.80
2019-04-23T01:31:33.137Z,12.70
2019-04-23T01:34:08.872Z,12.70
2019-04-23T01:39:08.450Z,12.70
2019-04-23T01:41:36.532Z,12.60
2019-04-23T01:43:55.273Z,12.60
2019-04-23T01:46:35.760Z,12.50
2019-04-23T01:51:36.661Z,12.40
2019-04-23T01:53:58.779Z,12.40
2019-04-23T01:56:30.339Z,12.40
2019-04-23T01:59:06.527Z,12.30
2019-04-23T02:01:32.819Z,12.30
2019-04-23T02:04:03.576Z,12.30
2019-04-23T02:06:31.616Z,12.20
2019-04-23T02:09:00.397Z,12.20
2019-04-23T02:11:48.997Z,12.20
2019-04-23T02:16:32.672Z,12.10
2019-04-23T02:19:18.172Z,12.00
2019-04-23T02:21:35.247Z,12.00
2019-04-23T02:24:00.110Z,12.00
2019-04-23T02:26:33.935Z,11.90
2019-04-23T02:29:14.916Z,11.80
2019-04-23T02:31:57.623Z,11.80
2019-04-23T02:34:33.439Z,11.70
2019-04-23T02:36:40.546Z,11.60
2019-04-23T02:39:22.062Z,11.60
2019-04-23T02:44:11.493Z,11.50
2019-04-23T02:46:43.517Z,11.50
2019-04-23T02:51:35.222Z,11.40
2019-04-23T02:54:04.202Z,11.40
2019-04-23T02:59:10.215Z,11.30
2019-04-23T03:04:10.034Z,11.20
2019-04-23T03:09:00.501Z,11.20
2019-04-23T03:11:32.161Z,11.10
2019-04-23T03:16:49.906Z,11.00
2019-04-23T03:21:51.897Z,10.90
2019-04-23T03:27:18.877Z,10.80
2019-04-23T03:39:50.147Z,10.70
2019-04-23T03:47:10.796Z,10.60
2019-04-23T03:49:40.991Z,10.50
2019-04-23T03:52:14.278Z,10.50
2019-04-23T03:54:39.801Z,10.50
2019-04-23T03:57:15.698Z,10.40
2019-04-23T04:02:19.695Z,10.40
2019-04-23T04:04:32.783Z,10.30
2019-04-23T04:07:09.807Z,10.30
2019-04-23T04:12:07.810Z,10.20
2019-04-23T04:14:38.524Z,10.20
2019-04-23T04:19:40.100Z,10.10
2019-04-23T04:24:37.882Z,10.10
2019-04-23T04:29:40.913Z,10.00
2019-04-23T04:37:27.656Z,10.00
2019-04-23T04:39:33.555Z,10.00
2019-04-23T04:41:56.966Z,9.90
2019-04-23T04:49:36.573Z,9.90
2019-04-23T04:52:13.499Z,9.80
2019-04-23T04:54:23.051Z,9.80
2019-04-23T04:59:25.672Z,9.80
2019-04-23T05:02:01.547Z,9.80
2019-04-23T05:04:28.540Z,9.80
2019-04-23T05:07:02.580Z,9.80
2019-04-23T05:09:29.493Z,9.70
2019-04-23T05:14:25.189Z,9.70
2019-04-23T05:16:52.876Z,9.60
2019-04-23T05:19:40.738Z,9.60
2019-04-23T05:21:58.700Z,9.70
2019-04-23T05:24:31.840Z,9.70
2019-04-23T05:26:46.552Z,9.70
2019-04-23T05:29:14.954Z,9.70
2019-04-23T05:31:48.318Z,9.70
2019-04-23T05:34:19.615Z,9.80
2019-04-23T05:36:53.732Z,9.80
2019-04-23T05:39:24.649Z,9.80
2019-04-23T05:41:45.249Z,9.80
2019-04-23T05:44:21.690Z,9.80
2019-04-23T05:46:45.845Z,9.80
2019-04-23T05:49:18.389Z,9.90
2019-04-23T05:59:19.045Z,10.10
2019-04-23T06:01:55.710Z,10.20
2019-04-23T06:04:22.007Z,10.30
2019-04-23T06:09:22.133Z,10.50
2019-04-23T06:17:21.672Z,10.90
2019-04-23T06:19:14.145Z,11.00
2019-04-23T06:21:52.393Z,11.10
2019-04-23T06:26:45.488Z,11.40
2019-04-23T06:31:42.984Z,11.60
2019-04-23T06:34:17.095Z,11.70
2019-04-23T06:36:37.091Z,11.80
2019-04-23T06:41:46.547Z,12.00
2019-04-23T06:44:54.931Z,12.10
2019-04-23T06:47:03.136Z,12.20
2019-04-23T06:49:42.326Z,12.20
2019-04-23T06:52:15.055Z,12.30
2019-04-23T06:57:14.612Z,12.40
2019-04-23T06:59:33.572Z,12.40
2019-04-23T07:02:08.128Z,12.50
2019-04-23T07:04:37.984Z,12.50
2019-04-23T07:07:24.098Z,12.60
2019-04-23T07:09:20.579Z,12.70
2019-04-23T07:12:02.031Z,12.70
2019-04-23T07:14:41.949Z,12.70
2019-04-23T07:16:58.940Z,12.80
2019-04-23T07:19:34.223Z,12.80
2019-04-23T07:22:09.649Z,12.90
2019-04-23T07:24:30.716Z,13.00
2019-04-23T07:26:55.024Z,13.00
2019-04-23T07:29:47.021Z,13.10
2019-04-23T07:31:59.066Z,13.20
2019-04-23T07:34:25.798Z,13.30
2019-04-23T07:36:58.799Z,13.30
2019-04-23T07:39:44.413Z,13.40
2019-04-23T07:50:09.534Z,13.80
2019-04-23T07:55:02.214Z,14.00
2019-04-23T07:57:40.270Z,14.10
2019-04-23T07:59:59.181Z,14.30
2019-04-23T08:02:29.278Z,14.40
2019-04-23T08:05:03.520Z,14.50
2019-04-23T08:09:53.264Z,14.80
2019-04-23T08:12:25.831Z,15.00
2019-04-23T08:14:59.956Z,15.10
2019-04-23T08:17:26.240Z,15.20
2019-04-23T08:19:56.459Z,15.20
2019-04-23T08:22:25.925Z,15.30
2019-04-23T08:25:06.753Z,15.50
2019-04-23T08:27:45.216Z,15.50
2019-04-23T08:30:06.404Z,15.60
2019-04-23T08:32:38.008Z,15.70
2019-04-23T08:35:06.413Z,15.90
2019-04-23T08:40:09.720Z,16.10
2019-04-23T08:42:48.009Z,16.00
2019-04-23T08:50:40.065Z,16.20
2019-04-23T08:53:24.800Z,16.30
2019-04-23T08:55:46.885Z,16.40
2019-04-23T08:58:14.090Z,16.40
2019-04-23T09:00:45.576Z,16.40
2019-04-23T09:05:45.222Z,16.50
2019-04-23T09:10:46.198Z,16.50
2019-04-23T09:13:35.301Z,16.50
2019-04-23T09:15:45.350Z,16.60
2019-04-23T09:18:12.330Z,16.70
2019-04-23T09:20:30.994Z,16.70
2019-04-23T09:23:04.131Z,16.80
2019-04-23T09:25:46.507Z,16.80
2019-04-23T09:28:13.428Z,16.80
2019-04-23T09:30:45.297Z,16.90
2019-04-23T09:33:24.340Z,17.00
2019-04-23T09:36:13.692Z,17.10
2019-04-23T09:38:55.905Z,17.20
2019-04-23T09:41:27.683Z,17.30
2019-04-23T09:44:41.070Z,17.40
2019-04-23T09:47:03.281Z,17.50
2019-04-23T09:49:26.420Z,17.60
2019-04-23T09:52:01.012Z,17.70
2019-04-23T09:54:27.168Z,17.80
2019-04-23T09:56:52.620Z,17.80
2019-04-23T10:01:45.249Z,18.00
2019-04-23T10:04:14.801Z,18.00
2019-04-23T10:06:32.229Z,18.00
2019-04-23T10:09:00.144Z,18.00
2019-04-23T10:11:26.266Z,18.00
2019-04-23T10:13:54.783Z,18.00
2019-04-23T10:16:25.739Z,18.10
2019-04-23T10:18:53.333Z,18.30
2019-04-23T10:21:21.551Z,18.50
2019-04-23T10:23:49.650Z,18.70
2019-04-23T10:26:17.645Z,18.70
2019-04-23T10:28:52.017Z,18.90
2019-04-23T10:31:20.726Z,19.00
2019-04-23T10:33:50.289Z,19.00
2019-04-23T10:36:21.950Z,19.00
2019-04-23T10:38:54.871Z,19.10
2019-04-23T10:41:18.231Z,19.20
2019-04-23T10:43:52.372Z,19.20
2019-04-23T10:47:12.157Z,19.30
2019-04-23T10:49:55.410Z,19.30
2019-04-23T10:52:22.228Z,19.50
2019-04-23T10:54:45.337Z,19.50
2019-04-23T10:57:16.483Z,19.70
2019-04-23T10:59:47.434Z,19.60
2019-04-23T11:02:36.445Z,19.70
2019-04-23T11:07:28.344Z,20.00
2019-04-23T11:09:59.334Z,20.00
2019-04-23T11:14:58.703Z,20.20
2019-04-23T11:17:35.517Z,20.30
2019-04-23T11:19:56.953Z,20.30
2019-04-23T11:27:31.331Z,20.50
2019-04-23T11:30:02.893Z,20.50
2019-04-23T11:32:40.890Z,20.50
2019-04-23T11:37:33.258Z,20.60
2019-04-23T11:39:49.565Z,20.50
2019-04-23T11:42:21.004Z,20.50
2019-04-23T11:47:45.611Z,20.50
2019-04-23T11:54:46.240Z,20.50
2019-04-23T12:02:43.344Z,20.70
2019-04-23T12:05:27.994Z,20.70
2019-04-23T12:08:11.519Z,20.70
2019-04-23T12:13:12.327Z,20.60
2019-04-23T12:18:25.447Z,20.50
2019-04-23T12:23:13.915Z,20.40
2019-04-23T12:25:36.585Z,20.40
2019-04-23T12:28:06.663Z,20.40
2019-04-23T12:30:39.626Z,20.40
2019-04-23T12:33:08.505Z,20.40
2019-04-23T12:35:28.535Z,20.60
2019-04-23T12:40:51.519Z,20.90
2019-04-23T12:43:12.785Z,21.00
2019-04-23T12:53:12.323Z,21.10
2019-04-23T12:55:36.340Z,21.10
2019-04-23T12:58:22.035Z,21.00
2019-04-23T13:00:37.112Z,21.10
2019-04-23T13:03:06.318Z,21.20
2019-04-23T13:05:31.178Z,21.10
2019-04-23T13:08:10.771Z,21.00
2019-04-23T13:10:40.006Z,20.90
2019-04-23T13:15:34.241Z,20.90
2019-04-23T13:18:06.778Z,20.90
2019-04-23T13:28:23.734Z,20.90
2019-04-23T13:33:30.730Z,20.90
2019-04-23T13:36:01.150Z,20.90
2019-04-23T13:38:28.553Z,20.90
2019-04-23T13:40:57.107Z,21.00
2019-04-23T13:43:29.670Z,20.90
2019-04-23T13:53:29.106Z,20.70
2019-04-23T13:55:42.606Z,20.70
2019-04-23T13:58:26.790Z,20.60
2019-04-23T14:00:52.370Z,20.50
2019-04-23T14:03:26.315Z,20.30
2019-04-23T14:06:35.119Z,20.20
2019-04-23T14:11:23.232Z,19.90
2019-04-23T14:14:05.736Z,19.80
2019-04-23T14:21:35.219Z,19.50
2019-04-23T14:24:03.056Z,19.50
2019-04-23T14:28:59.300Z,19.40
2019-04-23T14:31:28.510Z,19.40
2019-04-23T14:36:19.116Z,19.40
2019-04-23T14:38:49.738Z,19.40
2019-04-23T14:41:26.319Z,19.40
2019-04-23T14:43:58.104Z,19.50
2019-04-23T14:48:51.647Z,19.40
2019-04-23T14:51:33.995Z,19.40
2019-04-23T14:56:20.172Z,19.40
2019-04-23T14:58:57.615Z,19.40
2019-04-23T15:03:46.521Z,19.30
2019-04-23T15:16:33.528Z,19.20
2019-04-23T15:19:22.065Z,19.20
2019-04-23T15:24:14.086Z,19.20
2019-04-23T15:28:52.334Z,19.20
2019-04-23T15:31:40.555Z,19.20
2019-04-23T15:34:17.667Z,19.20
2019-04-23T15:37:09.273Z,19.20
2019-04-23T15:41:38.239Z,19.00
2019-04-23T15:44:09.708Z,18.90
2019-04-23T15:59:31.830Z,18.90
2019-04-23T16:01:43.455Z,19.00
2019-04-23T16:03:55.854Z,18.90
2019-04-23T16:06:27.221Z,18.90
2019-04-23T16:09:15.485Z,18.90
2019-04-23T16:12:06.619Z,18.90
2019-04-23T16:14:58.217Z,18.90
2019-04-23T16:17:21.257Z,18.90
2019-04-23T16:20:27.277Z,18.90
2019-04-23T16:22:36.890Z,18.90
2019-04-23T16:25:06.793Z,18.80
2019-04-23T16:27:27.378Z,18.80
2019-04-23T16:30:14.192Z,18.70
2019-04-23T16:33:02.624Z,18.70
2019-04-23T16:35:32.906Z,18.70
2019-04-23T16:38:18.022Z,18.60
2019-04-23T16:40:34.985Z,18.60
2019-04-23T16:43:06.500Z,18.60
2019-04-23T16:45:45.996Z,18.60
2019-04-23T16:48:09.354Z,18.60
2019-04-23T16:50:31.121Z,18.60
2019-04-23T16:53:02.945Z,18.60
2019-04-23T16:55:29.153Z,18.60
2019-04-23T16:58:08.354Z,18.50
2019-04-23T17:00:51.281Z,18.50
2019-04-23T17:03:04.392Z,18.50
2019-04-23T17:05:33.364Z,18.50
2019-04-23T17:08:31.103Z,18.50
2019-04-23T17:10:53.628Z,18.50
2019-04-23T17:13:06.605Z,18.40
2019-04-23T17:15:34.551Z,18.40
2019-04-23T17:18:01.742Z,18.30
2019-04-23T17:23:10.600Z,18.20
2019-04-23T17:25:34.487Z,18.20
2019-04-23T17:30:34.163Z,18.10
2019-04-23T17:33:13.512Z,18.10
2019-04-23T17:35:56.165Z,18.00
2019-04-23T17:38:14.878Z,18.00
2019-04-23T17:41:01.955Z,18.00
2019-04-23T17:43:24.076Z,17.90
2019-04-23T17:45:52.198Z,17.80
2019-04-23T17:48:47.793Z,17.80
2019-04-23T17:51:14.527Z,17.70
2019-04-23T17:53:52.770Z,17.60
2019-04-23T17:58:50.895Z,17.50
2019-04-23T18:01:20.326Z,17.40
2019-04-23T18:06:30.201Z,17.20
2019-04-23T18:08:49.251Z,17.10
2019-04-23T18:11:16.046Z,17.10
2019-04-23T18:13:50.536Z,17.00
2019-04-23T18:24:27.364Z,16.60
2019-04-23T18:26:51.618Z,16.60
2019-04-23T18:32:14.881Z,16.40
2019-04-23T18:34:55.374Z,16.30
2019-04-23T18:37:10.768Z,16.20
2019-04-23T18:39:36.435Z,16.20
2019-04-23T18:42:18.470Z,16.10
2019-04-23T18:44:41.992Z,16.00
2019-04-23T18:47:09.022Z,16.00
2019-04-23T18:52:10.018Z,15.90
2019-04-23T18:54:32.970Z,15.80
2019-04-23T18:57:09.345Z,15.70
2019-04-23T19:02:58.495Z,15.50
2019-04-23T19:05:28.265Z,15.50
2019-04-23T19:11:09.041Z,15.30
2019-04-23T19:13:41.087Z,15.30
2019-04-23T19:15:59.790Z,15.20
2019-04-23T19:21:10.881Z,15.20
2019-04-23T19:23:42.840Z,15.10
2019-04-23T19:26:02.463Z,15.10
2019-04-23T19:31:40.501Z,15.00
2019-04-23T19:34:17.520Z,15.00
2019-04-23T19:36:40.178Z,15.00
2019-04-23T19:39:11.533Z,14.90
2019-04-23T19:41:54.163Z,14.90
2019-04-23T19:44:01.331Z,15.00
2019-04-23T19:46:52.986Z,14.90
2019-04-23T19:51:33.759Z,14.80
2019-04-23T19:56:39.299Z,14.80
2019-04-23T20:01:31.356Z,14.80
2019-04-23T20:03:56.107Z,14.70
2019-04-23T20:07:02.261Z,14.70
2019-04-23T20:09:16.272Z,14.70
2019-04-23T20:11:37.625Z,14.60
2019-04-23T20:14:02.366Z,14.60
2019-04-23T20:16:40.019Z,14.50
2019-04-23T20:18:54.323Z,14.50
2019-04-23T20:21:32.546Z,14.40
2019-04-23T20:24:08.539Z,14.40
2019-04-23T20:26:23.734Z,14.50
2019-04-23T20:30:05.398Z,14.40
2019-04-23T20:35:06.650Z,14.30
2019-04-23T20:36:59.479Z,14.30
2019-04-23T20:39:41.966Z,14.30
2019-04-23T20:44:53.921Z,14.30
2019-04-23T20:47:15.812Z,14.20
2019-04-23T20:52:10.123Z,14.10
2019-04-23T20:54:50.901Z,14.10
2019-04-23T20:57:30.921Z,14.10
2019-04-23T21:05:19.190Z,14.10
2019-04-23T21:07:54.093Z,14.00
2019-04-23T21:15:19.938Z,14.00
2019-04-23T21:22:48.579Z,13.90
2019-04-23T21:25:14.857Z,13.90
2019-04-23T21:30:49.001Z,13.90
2019-04-23T21:33:05.175Z,13.90
2019-04-23T21:36:03.175Z,13.80
2019-04-23T21:38:37.437Z,13.80
2019-04-23T21:41:21.556Z,13.70
2019-04-23T21:44:05.430Z,13.70
2019-04-23T21:49:06.567Z,13.70
2019-04-23T21:53:50.699Z,13.60
2019-04-23T21:56:15.198Z,13.60
2019-04-23T21:58:55.825Z,13.50
2019-04-23T22:01:21.249Z,13.50
2019-04-23T22:04:05.118Z,13.30
2019-04-23T22:06:19.428Z,13.20
2019-04-23T22:08:45.052Z,13.20
2019-04-23T22:11:32.630Z,13.20
2019-04-23T22:14:00.411Z,13.10
2019-04-23T22:16:14.684Z,13.10
2019-04-23T22:18:57.215Z,13.00
2019-04-23T22:21:20.861Z,13.00
2019-04-23T22:23:58.176Z,13.00
2019-04-23T22:26:23.602Z,12.90
2019-04-23T22:28:57.794Z,12.80
2019-04-23T22:31:21.411Z,12.70
2019-04-23T22:33:56.807Z,12.60
2019-04-23T22:36:16.485Z,12.60
2019-04-23T22:38:45.100Z,12.50
2019-04-23T22:43:53.136Z,12.50
2019-04-23T22:46:15.789Z,12.40
2019-04-23T22:48:59.955Z,12.30
2019-04-23T22:53:52.295Z,12.20
2019-04-23T22:56:17.724Z,12.20
2019-04-23T22:59:03.464Z,12.10
2019-04-23T23:03:58.850Z,12.00
2019-04-23T23:06:34.854Z,11.90
2019-04-23T23:09:12.123Z,11.90
2019-04-23T23:11:28.750Z,11.90
2019-04-23T23:16:23.264Z,11.80
2019-04-23T23:18:59.948Z,11.80
2019-04-23T23:21:17.782Z,11.70
2019-04-23T23:23:56.464Z,11.70
2019-04-23T23:26:20.291Z,11.60
2019-04-23T23:28:55.831Z,11.60
2019-04-23T23:31:22.574Z,11.50
2019-04-23T23:33:58.939Z,11.40
2019-04-23T23:36:25.113Z,11.40
2019-04-23T23:39:01.004Z,11.30
2019-04-23T23:41:28.683Z,11.20
2019-04-23T23:43:59.620Z,11.20
2019-04-23T23:48:49.444Z,11.20
2019-04-23T23:56:15.377Z,10.90
